Marcel — ONDP — position and weather

sailwx.info

Track history (hours):
 
Tides and Currents Weather Stations Pressure Air Temp Water Temp Dewpoint Dewpoint Depression Visibility Wind Speed Wind Dir Waves Ship Positions

Marcel

Last reported at 2017-Apr-29 07:30 UTC. Time now 2017-Apr-29 07:31 UTC.
Position N 53°20' E 008°30'.

Length 88 m; draft 5.2 m.

Type: Cargo ship. MMSI: 205439000.

Date/timePositionNaut miles runAvg speedWind from/ knotsBaromVisibWave heightAir tempDewpointWater temp
2017-Apr-29 07:30N 53°20' E 008°30'611.3
2017-Apr-29 07:00N 53°15' E 008°29'510.2
2017-Apr-29 06:30N 53°11' E 008°34'4 8.9
2017-Apr-29 06:00N 53°08' E 008°40'2 3.6
2017-Apr-29 05:28N 53°07' E 008°43'0 0.5
2017-Apr-29 04:58N 53°07' E 008°43'0 0.1
2017-Apr-29 04:30N 53°07' E 008°43'0 0.0
2017-Apr-29 04:00N 53°07' E 008°43'0 0.0
2017-Apr-29 03:30N 53°07' E 008°43'0 0.0
2017-Apr-29 02:59N 53°07' E 008°43'0 0.0
2017-Apr-29 02:29N 53°07' E 008°43'0 0.0
2017-Apr-29 01:59N 53°07' E 008°43'0 0.0
2017-Apr-29 01:29N 53°07' E 008°43'0 0.0
2017-Apr-29 00:59N 53°07' E 008°43'0 0.0
2017-Apr-29 00:29N 53°07' E 008°43'0 0.0
2017-Apr-28 23:59N 53°07' E 008°43'0 0.0
2017-Apr-28 23:29N 53°07' E 008°43'0 0.0
2017-Apr-28 22:59N 53°07' E 008°43'0 0.0
2017-Apr-28 22:29N 53°07' E 008°43'0 0.0
2017-Apr-28 22:00N 53°07' E 008°43'0 0.0
2017-Apr-28 21:29N 53°07' E 008°43'0 0.0
2017-Apr-28 21:00N 53°07' E 008°43'0 0.0
2017-Apr-28 20:30N 53°07' E 008°43'0 0.0
2017-Apr-28 20:00N 53°07' E 008°43'0 0.0
2017-Apr-28 19:29N 53°07' E 008°43'0 0.0
2017-Apr-28 18:59N 53°07' E 008°43'0 0.0
2017-Apr-28 18:27N 53°07' E 008°43'0 0.0
2017-Apr-28 18:00N 53°07' E 008°43'0 0.0
2017-Apr-28 17:30N 53°07' E 008°43'0 0.0
2017-Apr-28 16:58N 53°07' E 008°43'0 0.0
2017-Apr-28 16:28N 53°07' E 008°43'0 0.0
2017-Apr-28 15:58N 53°07' E 008°43'0 0.0
2017-Apr-28 15:30N 53°07' E 008°43'0 0.0
2017-Apr-28 15:00N 53°07' E 008°43'0 0.0
2017-Apr-28 13:58N 53°07' E 008°43'0 0.0
2017-Apr-28 13:29N 53°07' E 008°43'0 0.0
2017-Apr-28 12:59N 53°07' E 008°43'0 0.0
2017-Apr-28 12:28N 53°07' E 008°43'0 0.0
2017-Apr-28 11:58N 53°07' E 008°43'0 0.0
2017-Apr-28 11:30N 53°07' E 008°43'0 0.0
2017-Apr-28 11:00N 53°07' E 008°43'0 0.6
2017-Apr-28 10:30N 53°07' E 008°43'0 0.0
2017-Apr-28 10:01N 53°07' E 008°43'2 3.7
2017-Apr-28 09:30N 53°08' E 008°40'4 7.2
2017-Apr-28 09:00N 53°10' E 008°36'3 6.8
2017-Apr-28 08:30N 53°12' E 008°31'4 8.0
2017-Apr-28 08:00N 53°16' E 008°29'4 7.3
2017-Apr-28 07:30N 53°20' E 008°29'3 6.7
2017-Apr-28 07:01N 53°23' E 008°30'4 8.1
2017-Apr-28 06:30N 53°27' E 008°29'3 7.0
2017-Apr-28 06:00N 53°30' E 008°31'2 2.7
2017-Apr-28 05:23N 53°31' E 008°33'0 0.0
2017-Apr-28 04:59N 53°31' E 008°33'0 0.0
2017-Apr-28 04:29N 53°31' E 008°33'0 0.0
2017-Apr-28 03:59N 53°31' E 008°33'0 0.0
2017-Apr-28 03:30N 53°31' E 008°33'0 0.0
2017-Apr-28 03:00N 53°31' E 008°33'0 0.0
2017-Apr-28 02:26N 53°31' E 008°33'0 0.1
2017-Apr-28 01:59N 53°31' E 008°33'0 0.2
2017-Apr-28 01:24N 53°31' E 008°33'0 0.0
2017-Apr-28 00:57N 53°31' E 008°33'0 0.0
2017-Apr-28 00:30N 53°31' E 008°33'0 0.0
2017-Apr-27 23:52N 53°31' E 008°33'0 0.0
2017-Apr-27 23:26N 53°31' E 008°33'0 0.0
2017-Apr-27 22:56N 53°31' E 008°33'0 0.0
2017-Apr-27 22:27N 53°31' E 008°33'0 0.0
2017-Apr-27 21:52N 53°31' E 008°33'0 0.0
2017-Apr-27 21:29N 53°31' E 008°33'0 0.0
2017-Apr-27 20:59N 53°31' E 008°33'0 0.3
2017-Apr-27 20:27N 53°31' E 008°33'0 0.0
2017-Apr-27 19:59N 53°31' E 008°33'0 0.0
2017-Apr-27 19:29N 53°31' E 008°33'0 0.0
2017-Apr-27 18:58N 53°31' E 008°33'0 0.0
2017-Apr-27 18:28N 53°31' E 008°33'0 0.0
2017-Apr-27 17:58N 53°31' E 008°33'0 0.0
2017-Apr-27 17:30N 53°31' E 008°33'0 0.0
2017-Apr-27 17:00N 53°31' E 008°33'0 0.7
2017-Apr-27 16:30N 53°31' E 008°34'1 1.9
2017-Apr-27 16:00N 53°32' E 008°34'4 7.3
2017-Apr-27 15:30N 53°35' E 008°31'4 8.4
2017-Apr-27 15:00N 53°38' E 008°26'8 8.5
2017-Apr-27 14:00N 53°44' E 008°15'4 8.8
2017-Apr-27 13:30N 53°47' E 008°09'5 9.6
2017-Apr-27 13:00N 53°50' E 008°04'151 9.2
2017-Apr-26 20:31N 52°49' E 004°12'0 7.7
2017-Apr-26 20:29N 52°48' E 004°12'4 7.8
2017-Apr-26 20:00N 52°45' E 004°09'66 2.3
2017-Apr-25 15:11N 51°47' E 003°20'0 0.5
2017-Apr-25 14:59N 51°47' E 003°19'2 3.1
2017-Apr-25 14:29N 51°46' E 003°18'0 0.0
2017-Apr-25 02:58N 51°46' E 003°18'0 0.0
2017-Apr-25 02:30N 51°46' E 003°18'0 0.0
2017-Apr-25 02:00N 51°46' E 003°18'0 0.0
2017-Apr-25 01:30N 51°46' E 003°18'11 1.9
2017-Apr-24 19:24N 51°35' E 003°24'4 8.7
2017-Apr-24 19:00N 51°32' E 003°26'5 8.7
2017-Apr-24 18:23N 51°28' E 003°31'4 9.5
2017-Apr-24 18:00N 51°26' E 003°37'4 0.7
2017-Apr-24 12:15N 51°28' E 003°42'0 0.0
2017-Apr-24 11:59N 51°28' E 003°42'0 0.0
2017-Apr-24 10:46N 51°28' E 003°42'0 0.0
2017-Apr-24 10:23N 51°28' E 003°42'0 0.0
2017-Apr-24 09:58N 51°28' E 003°42'0 0.0
2017-Apr-24 09:26N 51°28' E 003°42'1 1.7
2017-Apr-24 09:00N 51°28' E 003°41'5 9.5
2017-Apr-24 08:30N 51°25' E 003°35'611.9
2017-Apr-24 08:00N 51°25' E 003°25'611.4
2017-Apr-24 07:30N 51°24' E 003°16'510.5
2017-Apr-24 07:00N 51°22' E 003°08'510.1
2017-Apr-24 06:30N 51°22' E 003°00'510.0
2017-Apr-24 06:00N 51°22' E 002°52'5 9.8
2017-Apr-24 05:30N 51°22' E 002°44'5 9.5
2017-Apr-24 05:00N 51°22' E 002°37'4 8.4
2017-Apr-24 04:30N 51°22' E 002°30'4 8.3
2017-Apr-24 03:59N 51°20' E 002°24'4 7.9
2017-Apr-24 03:30N 51°18' E 002°19'5 8.5
2017-Apr-24 02:57N 51°15' E 002°12'4 8.9
2017-Apr-24 02:30N 51°13' E 002°07'4 8.9
2017-Apr-24 02:00N 51°11' E 002°01'5 9.5
2017-Apr-24 01:30N 51°09' E 001°54'5 9.8
2017-Apr-24 01:00N 51°06' E 001°48'1711.0
2017-Apr-23 23:30N 50°53' E 001°30'6811.2
2017-Apr-23 17:25N 50°17' W 000°01'110 9.9
2017-Apr-23 06:14N 49°48' W 002°47'9910.6
2017-Apr-22 20:53N 48°59' W 004°59'4 9.6
2017-Apr-22 20:27N 48°57' W 005°04'4 9.5
2017-Apr-22 20:00N 48°54' W 005°10'43 8.7
2017-Apr-22 14:58N 48°22' W 005°53'20 9.3
2017-Apr-22 12:48N 48°03' W 005°41'4910.1
2017-Apr-22 07:59N 47°18' W 005°12'510.3
2017-Apr-22 07:28N 47°14' W 005°09'510.4
2017-Apr-22 07:01N 47°09' W 005°06'510.5
2017-Apr-22 06:31N 47°05' W 005°03'510.6
2017-Apr-22 06:00N 46°60' W 004°59'510.8
2017-Apr-22 05:30N 46°55' W 004°57'510.4
2017-Apr-22 05:00N 46°50' W 004°54'510.5
2017-Apr-22 04:31N 46°45' W 004°51'610.5
2017-Apr-22 03:58N 46°40' W 004°47'510.4
2017-Apr-22 03:29N 46°35' W 004°44'510.2
2017-Apr-22 03:00N 46°31' W 004°41'610.3
2017-Apr-22 02:28N 46°26' W 004°38'510.2
2017-Apr-22 02:00N 46°21' W 004°35'  
Track history (hours):
 
Tides and Currents Weather Stations Pressure Air Temp Water Temp Dewpoint Dewpoint Depression Visibility Wind Speed Wind Dir Waves Ship Positions

Marcel

Last reported at 2017-Apr-29 07:30 UTC. Time now 2017-Apr-29 07:31 UTC.
Position N 53°20' E 008°30'.

Length 88 m; draft 5.2 m.

Type: Cargo ship. MMSI: 205439000.

Date/timePositionNaut miles runAvg speedWind from/ knotsBaromVisibWave heightAir tempDewpointWater temp
2017-Apr-29 07:30N 53°20' E 008°30'611.3
2017-Apr-29 07:00N 53°15' E 008°29'510.2
2017-Apr-29 06:30N 53°11' E 008°34'4 8.9
2017-Apr-29 06:00N 53°08' E 008°40'2 3.6
2017-Apr-29 05:28N 53°07' E 008°43'0 0.5
2017-Apr-29 04:58N 53°07' E 008°43'0 0.1
2017-Apr-29 04:30N 53°07' E 008°43'0 0.0
2017-Apr-29 04:00N 53°07' E 008°43'0 0.0
2017-Apr-29 03:30N 53°07' E 008°43'0 0.0
2017-Apr-29 02:59N 53°07' E 008°43'0 0.0
2017-Apr-29 02:29N 53°07' E 008°43'0 0.0
2017-Apr-29 01:59N 53°07' E 008°43'0 0.0
2017-Apr-29 01:29N 53°07' E 008°43'0 0.0
2017-Apr-29 00:59N 53°07' E 008°43'0 0.0
2017-Apr-29 00:29N 53°07' E 008°43'0 0.0
2017-Apr-28 23:59N 53°07' E 008°43'0 0.0
2017-Apr-28 23:29N 53°07' E 008°43'0 0.0
2017-Apr-28 22:59N 53°07' E 008°43'0 0.0
2017-Apr-28 22:29N 53°07' E 008°43'0 0.0
2017-Apr-28 22:00N 53°07' E 008°43'0 0.0
2017-Apr-28 21:29N 53°07' E 008°43'0 0.0
2017-Apr-28 21:00N 53°07' E 008°43'0 0.0
2017-Apr-28 20:30N 53°07' E 008°43'0 0.0
2017-Apr-28 20:00N 53°07' E 008°43'0 0.0
2017-Apr-28 19:29N 53°07' E 008°43'0 0.0
2017-Apr-28 18:59N 53°07' E 008°43'0 0.0
2017-Apr-28 18:27N 53°07' E 008°43'0 0.0
2017-Apr-28 18:00N 53°07' E 008°43'0 0.0
2017-Apr-28 17:30N 53°07' E 008°43'0 0.0
2017-Apr-28 16:58N 53°07' E 008°43'0 0.0
2017-Apr-28 16:28N 53°07' E 008°43'0 0.0
2017-Apr-28 15:58N 53°07' E 008°43'0 0.0
2017-Apr-28 15:30N 53°07' E 008°43'0 0.0
2017-Apr-28 15:00N 53°07' E 008°43'0 0.0
2017-Apr-28 13:58N 53°07' E 008°43'0 0.0
2017-Apr-28 13:29N 53°07' E 008°43'0 0.0
2017-Apr-28 12:59N 53°07' E 008°43'0 0.0
2017-Apr-28 12:28N 53°07' E 008°43'0 0.0
2017-Apr-28 11:58N 53°07' E 008°43'0 0.0
2017-Apr-28 11:30N 53°07' E 008°43'0 0.0
2017-Apr-28 11:00N 53°07' E 008°43'0 0.6
2017-Apr-28 10:30N 53°07' E 008°43'0 0.0
2017-Apr-28 10:01N 53°07' E 008°43'2 3.7
2017-Apr-28 09:30N 53°08' E 008°40'4 7.2
2017-Apr-28 09:00N 53°10' E 008°36'3 6.8
2017-Apr-28 08:30N 53°12' E 008°31'4 8.0
2017-Apr-28 08:00N 53°16' E 008°29'4 7.3
2017-Apr-28 07:30N 53°20' E 008°29'3 6.7
2017-Apr-28 07:01N 53°23' E 008°30'4 8.1
2017-Apr-28 06:30N 53°27' E 008°29'3 7.0
2017-Apr-28 06:00N 53°30' E 008°31'2 2.7
2017-Apr-28 05:23N 53°31' E 008°33'0 0.0
2017-Apr-28 04:59N 53°31' E 008°33'0 0.0
2017-Apr-28 04:29N 53°31' E 008°33'0 0.0
2017-Apr-28 03:59N 53°31' E 008°33'0 0.0
2017-Apr-28 03:30N 53°31' E 008°33'0 0.0
2017-Apr-28 03:00N 53°31' E 008°33'0 0.0
2017-Apr-28 02:26N 53°31' E 008°33'0 0.1
2017-Apr-28 01:59N 53°31' E 008°33'0 0.2
2017-Apr-28 01:24N 53°31' E 008°33'0 0.0
2017-Apr-28 00:57N 53°31' E 008°33'0 0.0
2017-Apr-28 00:30N 53°31' E 008°33'0 0.0
2017-Apr-27 23:52N 53°31' E 008°33'0 0.0
2017-Apr-27 23:26N 53°31' E 008°33'0 0.0
2017-Apr-27 22:56N 53°31' E 008°33'0 0.0
2017-Apr-27 22:27N 53°31' E 008°33'0 0.0
2017-Apr-27 21:52N 53°31' E 008°33'0 0.0
2017-Apr-27 21:29N 53°31' E 008°33'0 0.0
2017-Apr-27 20:59N 53°31' E 008°33'0 0.3
2017-Apr-27 20:27N 53°31' E 008°33'0 0.0
2017-Apr-27 19:59N 53°31' E 008°33'0 0.0
2017-Apr-27 19:29N 53°31' E 008°33'0 0.0
2017-Apr-27 18:58N 53°31' E 008°33'0 0.0
2017-Apr-27 18:28N 53°31' E 008°33'0 0.0
2017-Apr-27 17:58N 53°31' E 008°33'0 0.0
2017-Apr-27 17:30N 53°31' E 008°33'0 0.0
2017-Apr-27 17:00N 53°31' E 008°33'0 0.7
2017-Apr-27 16:30N 53°31' E 008°34'1 1.9
2017-Apr-27 16:00N 53°32' E 008°34'4 7.3
2017-Apr-27 15:30N 53°35' E 008°31'4 8.4
2017-Apr-27 15:00N 53°38' E 008°26'8 8.5
2017-Apr-27 14:00N 53°44' E 008°15'4 8.8
2017-Apr-27 13:30N 53°47' E 008°09'5 9.6
2017-Apr-27 13:00N 53°50' E 008°04'151 9.2
2017-Apr-26 20:31N 52°49' E 004°12'0 7.7
2017-Apr-26 20:29N 52°48' E 004°12'4 7.8
2017-Apr-26 20:00N 52°45' E 004°09'66 2.3
2017-Apr-25 15:11N 51°47' E 003°20'0 0.5
2017-Apr-25 14:59N 51°47' E 003°19'2 3.1
2017-Apr-25 14:29N 51°46' E 003°18'0 0.0
2017-Apr-25 02:58N 51°46' E 003°18'0 0.0
2017-Apr-25 02:30N 51°46' E 003°18'0 0.0
2017-Apr-25 02:00N 51°46' E 003°18'0 0.0
2017-Apr-25 01:30N 51°46' E 003°18'11 1.9
2017-Apr-24 19:24N 51°35' E 003°24'4 8.7
2017-Apr-24 19:00N 51°32' E 003°26'5 8.7
2017-Apr-24 18:23N 51°28' E 003°31'4 9.5
2017-Apr-24 18:00N 51°26' E 003°37'4 0.7
2017-Apr-24 12:15N 51°28' E 003°42'0 0.0
2017-Apr-24 11:59N 51°28' E 003°42'0 0.0
2017-Apr-24 10:46N 51°28' E 003°42'0 0.0
2017-Apr-24 10:23N 51°28' E 003°42'0 0.0
2017-Apr-24 09:58N 51°28' E 003°42'0 0.0
2017-Apr-24 09:26N 51°28' E 003°42'1 1.7
2017-Apr-24 09:00N 51°28' E 003°41'5 9.5
2017-Apr-24 08:30N 51°25' E 003°35'611.9
2017-Apr-24 08:00N 51°25' E 003°25'611.4
2017-Apr-24 07:30N 51°24' E 003°16'510.5
2017-Apr-24 07:00N 51°22' E 003°08'510.1
2017-Apr-24 06:30N 51°22' E 003°00'510.0
2017-Apr-24 06:00N 51°22' E 002°52'5 9.8
2017-Apr-24 05:30N 51°22' E 002°44'5 9.5
2017-Apr-24 05:00N 51°22' E 002°37'4 8.4
2017-Apr-24 04:30N 51°22' E 002°30'4 8.3
2017-Apr-24 03:59N 51°20' E 002°24'4 7.9
2017-Apr-24 03:30N 51°18' E 002°19'5 8.5
2017-Apr-24 02:57N 51°15' E 002°12'4 8.9
2017-Apr-24 02:30N 51°13' E 002°07'4 8.9
2017-Apr-24 02:00N 51°11' E 002°01'5 9.5
2017-Apr-24 01:30N 51°09' E 001°54'5 9.8
2017-Apr-24 01:00N 51°06' E 001°48'1711.0
2017-Apr-23 23:30N 50°53' E 001°30'6811.2
2017-Apr-23 17:25N 50°17' W 000°01'110 9.9
2017-Apr-23 06:14N 49°48' W 002°47'9910.6
2017-Apr-22 20:53N 48°59' W 004°59'4 9.6
2017-Apr-22 20:27N 48°57' W 005°04'4 9.5
2017-Apr-22 20:00N 48°54' W 005°10'43 8.7
2017-Apr-22 14:58N 48°22' W 005°53'20 9.3
2017-Apr-22 12:48N 48°03' W 005°41'4910.1
2017-Apr-22 07:59N 47°18' W 005°12'510.3
2017-Apr-22 07:28N 47°14' W 005°09'510.4
2017-Apr-22 07:01N 47°09' W 005°06'510.5
2017-Apr-22 06:31N 47°05' W 005°03'510.6
2017-Apr-22 06:00N 46°60' W 004°59'510.8
2017-Apr-22 05:30N 46°55' W 004°57'510.4
2017-Apr-22 05:00N 46°50' W 004°54'510.5
2017-Apr-22 04:31N 46°45' W 004°51'610.5
2017-Apr-22 03:58N 46°40' W 004°47'510.4
2017-Apr-22 03:29N 46°35' W 004°44'510.2
2017-Apr-22 03:00N 46°31' W 004°41'610.3
2017-Apr-22 02:28N 46°26' W 004°38'510.2
2017-Apr-22 02:00N 46°21' W 004°35'  

Dump ship's entire track history